Portada
METAR-TAF:

METAR-TAF

Aeroports :

Guilin, Xina

latitud: 25-20N, longitud: 110-18E, altitud: 166 m

Observació

L'informe es va fer fa 1 hora i 7 minuts, a les 16:00 UTC
Vent 4 kt del Nord/Nord-Est, variant entre Nord-Oest i Est/Nord-Est
Temperatura 6°C
Humitat 81%
Pressió 1023 hPa
Visibilitat 10 km o més
Cel ennuvolat a una alçada de 3600 ft
Cel cobert a una alçada de 5000 ft

METAR: ZGKL 261600Z 02002MPS 320V070 9999 BKN036 OVC050 06/03 Q1023 NOSIG

Hora: 01:07 (17:07 UTC)

Pronòstic

L'informe es va fer fa 7 hores i 54 minuts, a les 09:13 UTC
Pronòstic vàlid del 26 a les 12 UTC al 27 a les 12 UTC
Vent 8 kt del Nord-Est
Visibilitat 10 km o més
Cel ennuvolat a una alçada de 3300 ft
Cel cobert a una alçada de 4600 ft

TAF: ZGKL 260913Z 2612/2712 05004MPS 9999 BKN033 OVC046 TX12/2707Z TN05/2622Z

Observacions i pronòstics meteorològics de més de 4000 aeroports (METAR i TAF).

Les estacions disponibles són els punts grocs i vermells al mapa.

Posi el ratolí al punt desitjat per veure el nom de l'estació.

Feu clic per veure les observacions i els pronòstics meteorològics.

Per canviar el mapa: feu clic els botons verds amb una creu de color negre per apropar; al botó verd amb un guió per allunyar la imatge; o en les fletxes verdes per a mapes adjacents.


METAR-TAF: